Hunt Field
KLND : now visible

Airfield :











YOU CAN JOIN US ON...

 
LOGIN :

Register | Disclaimer

   EN    FR    IT 

 









Legend :    VFR   Marginal VFR   IFR   Intensive IFR   Very Intensive IFR
Visi :
Ceiling :
>= 8 km
>= 3000ft
5 to 8 km
1000 to 3000 ft
1500m to 5 km
500 to 1000 ft
800 to 1500m
200 to 500 ft
< 800m
< 200 ft
Symbols :   Thunderstorms  Fog  Heavy snow  Heavy precipitations  Wind > 20 kt






- Airport Elevation : 5586 ft


KLND - Hunt Field

CURRENT METAR :
  • 071953Z AUTO 21018G26KT 10SM CLR 33/M04 A2998 RMK AO2 PK WND 20026/1943 SLP067 T03281039

EXPIRED METARs :
  • 071853Z AUTO 22019G26KT 10SM CLR 33/M05 A2999 RMK AO2 PK WND 24028/1759 SLP066 T03281050
  • 071753Z AUTO 20013G25KT 10SM CLR 33/M03 A3000 RMK AO2 PK WND 22029/1727 SLP066 T03281033 10328 20183 58002

TAF KLND
Valid from the 07 at 18:00 until the 08 at 18:00 UTC


071724Z 0718/0818 VRB05KT P6SM SKC
FM072000 26012G20KT P6SM SCT150
FM080100 27010KT P6SM SKC
FM080600 26006KT P6SM SKC
FM081700 25009KT P6SM SKC
KZLC FIR / North America



MET'MAP, your aeronautical weather chart ! - Copyright ORBIFLY December 2007 - Disclaimer

ORBIFLY MET'MAP TEAM :

Programming & Development : Alexandra Zaïnal
Concept & original design : Baudouin d'Aumeries
Assistance for programming : Marc-Olivier Méhu
Technical & hardware support : Manuel Goepfert

Contact : metmap@orbifly.com




SOURCES & CREDITS :

   NOAA       Earth
Advisory